Time;durP1;ratioP1;P1;durP2;ratioP2;P2;SDS_P1;SDS_P2;PMS_P1;PMS_P2;Temp;Humidity;BMP_temperature;BMP_pressure;BME280_temperature;BME280_humidity;BME280_pressure;Samples;Min_cycle;Max_cycle;Signal;HPM_P1;HPM_P2
2021/06/23 00:00:33;;;;;;;15.05;10.00;;;;;;;20.16;80.60;95889.59;5094753;28;20089;-84
2021/06/23 00:02:58;;;;;;;18.25;10.57;;;;;;;20.22;80.43;95897.75;5095688;28;20027;-84
2021/06/23 00:05:24;;;;;;;15.38;10.18;;;;;;;20.26;81.47;95915.44;5095594;28;20464;-84
2021/06/23 00:07:51;;;;;;;21.77;9.95;;;;;;;20.42;81.66;95946.69;5092955;28;20031;-84
2021/06/23 00:10:17;;;;;;;18.45;10.63;;;;;;;20.44;81.22;95948.91;5095525;28;20081;-84
2021/06/23 00:12:44;;;;;;;18.30;10.60;;;;;;;20.28;80.96;95934.94;5095508;28;20411;-84
2021/06/23 00:15:13;;;;;;;15.15;10.40;;;;;;;19.91;81.71;95885.59;5092961;28;20012;-84
2021/06/23 00:17:39;;;;;;;17.73;10.65;;;;;;;19.88;81.41;95890.91;5094328;28;20053;-84
2021/06/23 00:20:06;;;;;;;13.48;10.52;;;;;;;20.24;81.67;95948.31;5094230;28;20056;-84
2021/06/23 00:22:32;;;;;;;17.95;10.65;;;;;;;19.92;81.81;95912.63;5095363;28;20099;-84
2021/06/23 00:24:58;;;;;;;18.17;10.75;;;;;;;20.05;81.61;95933.91;5092782;28;20028;-84
2021/06/23 00:27:25;;;;;;;13.98;10.65;;;;;;;20.00;81.58;95929.25;5094103;28;20028;-84
2021/06/23 00:29:50;;;;;;;18.15;10.73;;;;;;;19.90;81.67;95920.66;5093875;28;20059;-84
2021/06/23 00:32:19;;;;;;;16.00;10.50;;;;;;;19.78;81.80;95906.38;5093844;28;20028;-84
2021/06/23 00:34:45;;;;;;;16.80;10.35;;;;;;;20.02;81.90;95957.00;5093964;28;20023;-84
2021/06/23 00:37:12;;;;;;;16.30;10.55;;;;;;;19.89;82.16;95938.47;5093964;28;20027;-84
2021/06/23 00:39:38;;;;;;;17.90;10.48;;;;;;;19.96;81.73;95948.09;5094984;28;20028;-84
2021/06/23 00:42:07;;;;;;;15.45;10.18;;;;;;;19.93;82.13;95949.19;5092178;28;20297;-84
2021/06/23 00:44:33;;;;;;;21.80;11.15;;;;;;;19.98;81.75;95945.59;5094800;28;20404;-84
2021/06/23 00:46:59;;;;;;;18.63;10.15;;;;;;;19.73;81.67;95906.47;5093806;28;20424;-84
2021/06/23 00:49:31;;;;;;;19.60;10.82;;;;;;;19.72;82.00;95911.25;5093143;28;20345;-84
2021/06/23 00:51:58;;;;;;;18.52;11.20;;;;;;;19.89;81.81;95938.47;5094735;28;20024;-84
2021/06/23 00:54:24;;;;;;;18.95;10.15;;;;;;;19.61;81.98;95906.69;5093609;28;20031;-84
2021/06/23 00:56:50;;;;;;;17.05;11.02;;;;;;;19.60;81.58;95913.47;5092242;28;20323;-84
2021/06/23 00:59:16;;;;;;;19.45;10.70;;;;;;;19.75;82.21;95936.97;5092895;28;20111;-84
2021/06/23 01:01:43;;;;;;;16.80;10.65;;;;;;;19.81;82.14;95943.13;5079295;28;20031;-84
2021/06/23 01:04:09;;;;;;;15.68;10.75;;;;;;;19.53;81.91;95896.78;5089944;28;20024;-84
2021/06/23 01:06:35;;;;;;;21.98;10.82;;;;;;;19.44;81.83;95906.22;5088412;28;20028;-84
2021/06/23 01:09:04;;;;;;;15.82;10.30;;;;;;;19.59;81.86;95931.25;5073099;28;20077;-84
2021/06/23 01:11:30;;;;;;;16.95;10.82;;;;;;;19.58;81.39;95904.94;5072596;28;20027;-84
2021/06/23 01:13:59;;;;;;;17.13;10.85;;;;;;;19.77;80.87;95910.41;5072184;28;20098;-84
2021/06/23 01:16:30;;;;;;;18.80;10.77;;;;;;;20.04;79.93;95937.94;5072518;28;20313;-85
2021/06/23 01:18:57;;;;;;;22.02;10.65;;;;;;;20.04;79.93;95937.94;5089828;28;20024;-84
2021/06/23 01:21:23;;;;;;;14.68;9.60;;;;;;;20.04;79.93;95937.94;5072907;28;20037;-84
2021/06/23 01:23:49;;;;;;;14.45;9.80;;;;;;;20.04;79.93;95937.94;5071542;28;20040;-85
2021/06/23 01:26:14;;;;;;;19.30;9.38;;;;;;;-145.61;100.00;68426.72;5074035;28;20033;-85
2021/06/23 01:28:40;;;;;;;23.23;10.88;;;;;;;-145.61;100.00;68426.72;5073789;28;20387;-84
2021/06/23 01:31:06;;;;;;;19.38;10.70;;;;;;;19.84;100.00;68426.72;5072524;28;20060;-84
2021/06/23 01:33:33;;;;;;;19.05;10.50;;;;;;;19.84;78.95;95900.75;5072332;28;20412;-84
2021/06/23 01:35:59;;;;;;;15.20;10.38;;;;;;;19.84;80.47;95939.31;5073840;28;20017;-84
2021/06/23 01:38:25;;;;;;;25.05;10.95;;;;;;;19.45;81.41;95907.69;5073763;28;20133;-84
2021/06/23 01:40:52;;;;;;;17.55;11.20;;;;;;;19.78;81.68;95952.47;5071093;28;20115;-84
2021/06/23 01:43:18;;;;;;;21.13;10.95;;;;;;;19.26;81.98;95910.50;5072648;28;20468;-84
2021/06/23 01:45:45;;;;;;;18.45;11.95;;;;;;;19.57;82.46;95961.28;5073627;28;20351;-84
2021/06/23 01:48:18;;;;;;;17.55;11.65;;;;;;;18.90;82.75;95871.56;5088564;28;20074;-84
2021/06/23 01:50:51;;;;;;;18.52;11.60;;;;;;;19.52;83.16;95973.16;5072495;28;20082;-84
2021/06/23 01:53:17;;;;;;;18.73;11.93;;;;;;;19.32;84.03;95957.22;5072539;28;20077;-85
2021/06/23 01:55:43;;;;;;;21.75;11.60;;;;;;;19.26;84.04;95953.81;5071247;28;20029;-84
2021/06/23 01:58:11;;;;;;;18.45;11.00;;;;;;;18.80;83.46;95885.00;5072373;28;20032;-83
2021/06/23 02:00:40;;;;;;;20.30;11.25;;;;;;;19.48;83.12;95980.22;5072402;28;20021;-84
2021/06/23 02:03:15;;;;;;;19.70;11.02;;;;;;;19.10;83.18;95948.03;5072401;28;20119;-84
2021/06/23 02:05:52;;;;;;;19.48;12.10;;;;;;;19.29;83.58;95985.81;5072327;28;20074;-84
2021/06/23 02:08:30;;;;;;;16.45;11.65;;;;;;;19.13;83.72;95960.03;5072809;28;20028;-84
2021/06/23 02:11:23;;;;;;;18.33;11.18;;;;;;;19.29;84.39;95994.81;5075847;28;20139;-84
2021/06/23 02:14:33;;;;;;;19.10;11.27;;;;;;;19.32;84.20;95985.47;5077205;28;20027;-84
2021/06/23 02:17:01;;;;;;;18.48;12.27;;;;;;;19.27;83.91;95978.06;5076342;28;20051;-83
2021/06/23 02:19:26;;;;;;;19.90;12.93;;;;;;;18.85;84.90;95927.41;5076171;28;20020;-85
2021/06/23 02:21:52;;;;;;;20.63;12.95;;;;;;;19.14;84.14;95980.03;5076344;28;20119;-84
2021/06/23 02:24:18;;;;;;;21.20;12.30;;;;;;;19.17;84.74;95985.22;5076176;28;20412;-84
2021/06/23 02:26:45;;;;;;;20.45;12.45;;;;;;;18.81;84.58;95947.00;5074976;28;20030;-84
2021/06/23 02:29:11;;;;;;;16.15;12.27;;;;;;;19.10;85.08;95988.59;5075982;28;20051;-84
2021/06/23 02:31:39;;;;;;;17.58;12.82;;;;;;;18.99;84.93;95966.75;5076137;28;20036;-83
2021/06/23 02:34:10;;;;;;;16.25;12.20;;;;;;;19.12;84.94;95997.03;5075973;28;20379;-84
2021/06/23 02:36:37;;;;;;;20.25;13.77;;;;;;;18.90;85.12;95965.09;5076142;28;20431;-84
2021/06/23 02:39:04;;;;;;;17.25;12.80;;;;;;;19.17;84.88;96014.75;5077042;28;20058;-84
2021/06/23 02:41:31;;;;;;;19.50;13.35;;;;;;;19.16;84.97;96019.50;5075921;28;20052;-84
2021/06/23 02:43:56;;;;;;;16.45;12.75;;;;;;;18.89;84.96;95974.63;5091055;28;20021;-84
2021/06/23 02:46:22;;;;;;;17.80;12.05;;;;;;;18.70;85.89;95952.66;5076638;28;20024;-84
2021/06/23 02:48:51;;;;;;;17.88;12.68;;;;;;;18.81;85.49;95969.00;5080184;28;20069;-84
2021/06/23 02:51:21;;;;;;;19.35;12.80;;;;;;;18.96;85.48;96001.56;5095234;28;20067;-84
2021/06/23 02:53:48;;;;;;;17.73;12.82;;;;;;;18.93;86.00;95999.09;5096561;28;20028;-84
2021/06/23 02:56:16;;;;;;;16.48;12.50;;;;;;;19.01;85.48;96010.97;5095914;28;20076;-83
2021/06/23 02:58:42;;;;;;;17.27;12.13;;;;;;;19.16;85.74;96029.78;5097016;28;20036;-84
2021/06/23 03:01:10;;;;;;;19.48;12.68;;;;;;;18.78;85.79;95985.78;5094421;28;20016;-83
2021/06/23 03:03:37;;;;;;;20.15;13.45;;;;;;;18.84;86.37;96005.69;5095810;28;20040;-84
2021/06/23 03:06:03;;;;;;;17.60;12.65;;;;;;;19.05;85.98;96036.94;5095425;28;20025;-84
2021/06/23 03:08:28;;;;;;;17.50;13.65;;;;;;;18.81;86.93;95995.75;5094671;28;20034;-84
2021/06/23 03:10:55;;;;;;;20.30;13.75;;;;;;;19.05;86.44;96045.19;5086580;28;20027;-84
2021/06/23 03:13:20;;;;;;;20.55;13.50;;;;;;;18.91;86.52;96023.63;5084065;28;20048;-84
2021/06/23 03:15:46;;;;;;;20.70;13.77;;;;;;;18.80;86.09;96006.03;5074890;28;20052;-83
2021/06/23 03:18:12;;;;;;;21.33;13.98;;;;;;;18.69;86.86;96006.16;5077161;28;20028;-84
2021/06/23 03:20:38;;;;;;;18.10;13.13;;;;;;;18.97;86.51;96052.56;5095904;28;20028;-83
2021/06/23 03:23:04;;;;;;;23.67;12.98;;;;;;;19.08;85.58;96071.66;5096167;28;20023;-83
2021/06/23 03:25:30;;;;;;;19.42;13.43;;;;;;;18.99;85.88;96049.28;5094854;28;20032;-83
2021/06/23 03:27:59;;;;;;;19.42;13.30;;;;;;;19.07;85.81;96072.94;5094075;28;20028;-83
2021/06/23 03:30:26;;;;;;;20.05;13.25;;;;;;;18.41;85.82;95992.72;5096112;28;20035;-84
2021/06/23 03:32:52;;;;;;;22.02;14.05;;;;;;;18.80;86.59;96050.03;5094933;28;20016;-84
2021/06/23 03:35:22;;;;;;;26.67;14.38;;;;;;;18.77;86.56;96039.31;5093400;28;20024;-84
2021/06/23 03:37:49;;;;;;;25.63;16.38;;;;;;;19.16;85.74;96093.06;5096160;28;20031;-84
2021/06/23 03:40:15;;;;;;;21.48;14.88;;;;;;;19.07;86.67;96078.44;5096035;28;20043;-84
2021/06/23 03:42:41;;;;;;;26.33;15.27;;;;;;;19.16;86.12;96087.56;5093435;28;20035;-84
2021/06/23 03:45:08;;;;;;;30.40;20.10;;;;;;;19.14;86.96;96088.09;5080464;28;20024;-84
2021/06/23 03:47:33;;;;;;;27.77;20.50;;;;;;;19.01;86.97;96072.25;5081089;28;20154;-84
2021/06/23 03:49:59;;;;;;;28.38;21.40;;;;;;;19.23;86.07;96082.22;5081933;28;20111;-84
2021/06/23 03:52:25;;;;;;;26.98;19.85;;;;;;;19.25;85.05;96074.19;5094346;28;20031;-84
2021/06/23 03:54:50;;;;;;;28.35;18.60;;;;;;;19.28;85.96;96081.41;5094794;28;20042;-84
2021/06/23 03:57:16;;;;;;;25.30;16.02;;;;;;;19.24;86.02;96091.97;5094732;28;20484;-85
2021/06/23 03:59:42;;;;;;;25.50;15.73;;;;;;;19.43;85.46;96100.19;5095997;28;20363;-86
2021/06/23 04:02:07;;;;;;;22.73;14.13;;;;;;;19.13;84.77;96037.09;5094240;28;20032;-85
2021/06/23 04:04:33;;;;;;;22.67;14.82;;;;;;;19.34;85.05;96071.06;5094756;28;20028;-84
2021/06/23 04:06:59;;;;;;;26.35;14.88;;;;;;;19.31;85.36;96063.09;5095702;28;20195;-84
2021/06/23 04:09:24;;;;;;;20.55;13.65;;;;;;;19.22;84.29;96039.44;5093790;28;20024;-84
2021/06/23 04:11:50;;;;;;;20.83;13.95;;;;;;;19.52;84.75;96088.81;5094978;28;20044;-84
2021/06/23 04:14:15;;;;;;;21.83;14.18;;;;;;;19.32;85.73;96062.56;5094422;28;20126;-84
2021/06/23 04:16:42;;;;;;;19.98;13.07;;;;;;;19.65;84.96;96101.91;5094357;28;20077;-84
2021/06/23 04:19:07;;;;;;;18.27;13.27;;;;;;;19.62;84.19;96089.19;5092730;28;20035;-84
2021/06/23 04:21:33;;;;;;;23.27;14.40;;;;;;;19.62;84.19;96072.66;5094453;28;20016;-84
2021/06/23 04:23:59;;;;;;;25.05;13.45;;;;;;;19.79;84.12;96106.19;5093967;28;20024;-84
2021/06/23 04:26:24;;;;;;;20.42;12.80;;;;;;;19.65;83.53;96076.38;5093813;28;20097;-83
2021/06/23 04:28:50;;;;;;;22.60;13.13;;;;;;;19.52;83.66;96050.25;5092330;28;20139;-83
2021/06/23 04:31:17;;;;;;;17.95;12.35;;;;;;;19.52;83.66;96050.25;5089638;28;20049;-84
2021/06/23 04:33:43;;;;;;;20.23;12.35;;;;;;;19.52;83.66;96050.25;5073726;28;20031;-84
2021/06/23 04:36:09;;;;;;;21.00;13.30;;;;;;;19.87;100.00;68426.72;5073951;28;20047;-85
2021/06/23 04:38:34;;;;;;;20.77;12.32;;;;;;;-145.61;100.00;68426.72;5074061;28;20020;-85
2021/06/23 04:41:00;;;;;;;19.58;11.95;;;;;;;20.10;81.28;96081.91;5073635;28;20427;-84
2021/06/23 04:43:25;;;;;;;21.60;11.90;;;;;;;20.10;81.28;96081.91;5073610;28;20028;-83
2021/06/23 04:45:50;;;;;;;20.80;12.23;;;;;;;-145.61;100.00;68426.72;5088752;28;20028;-83
2021/06/23 04:48:16;;;;;;;21.15;12.38;;;;;;;-145.61;100.00;68426.72;5090989;28;20024;-85
2021/06/23 04:50:42;;;;;;;20.73;12.07;;;;;;;-145.61;100.00;68426.72;5077370;28;20028;-85
2021/06/23 04:53:07;;;;;;;25.30;13.43;;;;;;;-145.61;100.00;68426.72;5073415;28;20116;-84
2021/06/23 04:55:33;;;;;;;23.67;12.18;;;;;;;-145.61;100.00;68426.72;5072772;28;20035;-86
2021/06/23 04:57:59;;;;;;;21.35;12.18;;;;;;;-145.61;100.00;68426.72;5073639;28;20425;-85
2021/06/23 05:00:25;;;;;;;22.50;11.90;;;;;;;-145.61;100.00;68426.72;5072953;28;20090;-85
2021/06/23 05:02:50;;;;;;;17.77;13.15;;;;;;;-145.61;100.00;68426.72;5072455;28;20029;-85
2021/06/23 05:05:16;;;;;;;15.57;12.18;;;;;;;-145.61;100.00;68426.72;5071977;28;20028;-86
2021/06/23 05:07:41;;;;;;;17.27;13.55;;;;;;;-145.61;100.00;68426.72;5074129;28;20032;-86
2021/06/23 05:10:07;;;;;;;19.80;12.88;;;;;;;-145.61;100.00;68426.72;5061726;28;20024;-85
2021/06/23 05:12:33;;;;;;;17.00;13.13;;;;;;;-145.61;100.00;68426.72;5068425;28;20036;-85
2021/06/23 05:14:58;;;;;;;19.58;14.98;;;;;;;-145.61;100.00;68426.72;5069424;28;20475;-84
2021/06/23 05:17:25;;;;;;;20.88;13.77;;;;;;;-145.61;100.00;68426.72;5054130;28;20024;-86
2021/06/23 05:19:50;;;;;;;18.48;14.02;;;;;;;-145.61;100.00;68426.72;5059566;28;20086;-84
2021/06/23 05:22:16;;;;;;;19.38;14.80;;;;;;;-145.61;100.00;68426.72;5071388;28;20021;-86
2021/06/23 05:24:42;;;;;;;20.90;15.27;;;;;;;-145.61;100.00;68426.72;5072753;28;20041;-84
2021/06/23 05:27:09;;;;;;;22.02;14.10;;;;;;;-145.61;100.00;68426.72;5072737;28;20093;-86
2021/06/23 05:29:35;;;;;;;18.98;15.20;;;;;;;-145.61;100.00;68426.72;5085609;28;20040;-86
2021/06/23 05:32:01;;;;;;;21.48;15.55;;;;;;;-145.61;100.00;68426.72;5066811;28;20085;-86
2021/06/23 05:34:28;;;;;;;20.42;15.10;;;;;;;-145.61;100.00;68426.72;5072820;28;20024;-86
2021/06/23 05:36:54;;;;;;;19.85;14.88;;;;;;;-145.61;100.00;68426.72;5072695;28;20044;-85
2021/06/23 05:39:20;;;;;;;22.98;15.68;;;;;;;-145.61;100.00;68426.72;5072274;28;20052;-86
2021/06/23 05:41:45;;;;;;;21.83;16.27;;;;;;;-145.61;100.00;68426.72;5073828;28;20634;-86
2021/06/23 05:44:11;;;;;;;21.88;15.80;;;;;;;-145.61;100.00;68426.72;5073648;28;20444;-86
2021/06/23 05:46:36;;;;;;;21.17;16.70;;;;;;;-145.61;100.00;68426.72;5079084;28;20358;-85
2021/06/23 05:49:02;;;;;;;25.30;16.70;;;;;;;-145.61;100.00;68426.72;5098444;28;20024;-85
2021/06/23 05:51:28;;;;;;;25.63;17.30;;;;;;;-145.61;100.00;68426.72;5056763;28;20108;-86
2021/06/23 05:53:53;;;;;;;27.00;17.67;;;;;;;-145.61;100.00;68426.72;5072454;28;20413;-86
2021/06/23 05:56:19;;;;;;;23.50;17.02;;;;;;;-145.61;100.00;68426.72;5073632;28;20020;-86
2021/06/23 05:58:45;;;;;;;26.10;17.48;;;;;;;-145.61;100.00;68426.72;5071025;28;20021;-85
2021/06/23 06:01:10;;;;;;;23.08;16.38;;;;;;;-145.61;100.00;68426.72;5072361;28;20094;-85
2021/06/23 06:03:37;;;;;;;25.30;16.80;;;;;;;-145.61;100.00;68426.72;5060721;28;20033;-86
2021/06/23 06:06:03;;;;;;;29.88;17.85;;;;;;;-145.61;100.00;68426.72;5067574;28;20431;-86
2021/06/23 06:08:29;;;;;;;23.48;16.88;;;;;;;-145.61;100.00;68426.72;5053375;28;20092;-86
2021/06/23 06:10:54;;;;;;;24.77;16.70;;;;;;;-145.61;100.00;68426.72;5052246;28;20448;-84
2021/06/23 06:13:20;;;;;;;26.40;17.02;;;;;;;-145.61;100.00;68426.72;5052448;28;20112;-84
2021/06/23 06:15:46;;;;;;;25.75;17.38;;;;;;;-145.61;100.00;68426.72;5056915;28;20017;-84
2021/06/23 06:18:11;;;;;;;23.65;17.23;;;;;;;-145.61;100.00;68426.72;5072276;28;20029;-84
2021/06/23 06:20:37;;;;;;;29.77;17.75;;;;;;;-145.61;100.00;68426.72;5059236;28;20029;-84
2021/06/23 06:23:04;;;;;;;23.63;16.30;;;;;;;-145.61;100.00;68426.72;5069601;28;20420;-85
2021/06/23 06:25:30;;;;;;;27.67;16.75;;;;;;;-145.61;100.00;68426.72;5072453;28;20082;-85
2021/06/23 06:27:56;;;;;;;26.58;16.42;;;;;;;-145.61;100.00;68426.72;5072056;28;20025;-85
2021/06/23 06:30:23;;;;;;;26.23;17.48;;;;;;;-145.61;100.00;68426.72;5072223;28;20059;-84
2021/06/23 06:32:50;;;;;;;22.48;17.10;;;;;;;-145.61;100.00;68426.72;5069505;28;20021;-84
2021/06/23 06:35:15;;;;;;;22.05;16.95;;;;;;;-145.61;100.00;68426.72;5073156;28;20085;-85
2021/06/23 06:37:41;;;;;;;25.77;16.80;;;;;;;-145.61;100.00;68426.72;5072565;28;20336;-85
2021/06/23 06:40:07;;;;;;;21.77;16.55;;;;;;;-145.61;100.00;68426.72;5072057;28;20438;-85
2021/06/23 06:42:32;;;;;;;25.05;19.10;;;;;;;-145.61;100.00;68426.72;5070518;28;20413;-85
2021/06/23 06:44:58;;;;;;;25.17;17.42;;;;;;;-145.61;100.00;68426.72;5071943;28;20048;-86
2021/06/23 06:47:24;;;;;;;25.50;18.45;;;;;;;-145.61;100.00;68426.72;5072027;28;20021;-85
2021/06/23 06:49:49;;;;;;;22.30;17.42;;;;;;;-145.61;100.00;68426.72;5071670;28;20031;-84
2021/06/23 06:52:15;;;;;;;22.80;17.83;;;;;;;-145.61;100.00;68426.72;5064842;28;20028;-85
2021/06/23 06:54:40;;;;;;;27.25;17.90;;;;;;;-145.61;100.00;68426.72;5074350;28;20024;-85
2021/06/23 06:57:06;;;;;;;24.02;17.10;;;;;;;-145.61;100.00;68426.72;5076874;28;20351;-85
2021/06/23 06:59:31;;;;;;;21.63;15.57;;;;;;;-145.61;100.00;68426.72;5086833;28;20035;-85
2021/06/23 07:01:57;;;;;;;27.60;17.35;;;;;;;-145.61;100.00;68426.72;5074542;28;20036;-84
2021/06/23 07:04:23;;;;;;;24.55;17.33;;;;;;;-145.61;100.00;68426.72;5076578;28;20420;-85
2021/06/23 07:06:49;;;;;;;20.75;14.77;;;;;;;-145.61;100.00;68426.72;5075411;28;20032;-85
2021/06/23 07:09:15;;;;;;;22.02;16.48;;;;;;;-145.61;100.00;68426.72;5073722;28;20104;-85
2021/06/23 07:11:42;;;;;;;20.38;15.35;;;;;;;-145.61;100.00;68426.72;5075287;28;20082;-85
2021/06/23 07:14:07;;;;;;;25.77;15.45;;;;;;;-145.61;100.00;68426.72;5091979;28;20074;-85
2021/06/23 07:16:33;;;;;;;21.30;16.15;;;;;;;-145.61;100.00;68426.72;5071865;28;20025;-84
2021/06/23 07:18:58;;;;;;;23.98;14.88;;;;;;;-145.61;100.00;68426.72;5053862;28;20066;-84
2021/06/23 07:21:24;;;;;;;20.17;14.68;;;;;;;-145.61;100.00;68426.72;5055252;28;20032;-85
2021/06/23 07:23:53;;;;;;;19.27;14.88;;;;;;;-145.61;100.00;68426.72;5075998;28;20067;-85
2021/06/23 07:26:20;;;;;;;17.10;13.93;;;;;;;-145.61;100.00;68426.72;5073413;28;20012;-84
2021/06/23 07:28:53;;;;;;;20.95;15.20;;;;;;;-145.61;100.00;68426.72;5062667;28;20053;-85
2021/06/23 07:36:46;;;;;;;21.05;16.35;;;;;;;-145.61;100.00;68426.72;5066290;28;20021;-85
2021/06/23 07:39:14;;;;;;;24.58;15.75;;;;;;;-145.61;100.00;68426.72;5073192;28;20071;-84
2021/06/23 07:41:43;;;;;;;24.05;15.35;;;;;;;-145.61;100.00;68426.72;5091494;28;20405;-85
2021/06/23 07:44:11;;;;;;;17.67;13.75;;;;;;;24.26;67.24;96137.41;5075665;28;20039;-85
2021/06/23 07:46:39;;;;;;;18.80;13.80;;;;;;;24.39;66.93;96141.31;5070039;28;20063;-85
2021/06/23 07:49:10;;;;;;;20.95;13.77;;;;;;;24.39;66.93;96141.31;5070688;28;20028;-85
2021/06/23 08:10:11;;;;;;;25.52;14.55;;;;;;;24.75;65.86;96130.72;5054836;28;20039;-85
2021/06/23 08:15:06;;;;;;;17.92;12.98;;;;;;;25.09;65.60;96162.88;5075295;28;20111;-85
2021/06/23 08:17:32;;;;;;;19.20;13.55;;;;;;;25.11;65.01;96157.50;5071351;28;20029;-85
2021/06/23 08:19:58;;;;;;;22.33;13.95;;;;;;;25.01;65.19;96139.91;5072901;28;20324;-84
2021/06/23 08:22:23;;;;;;;16.90;12.80;;;;;;;25.02;64.89;96128.22;5072319;28;20070;-85
2021/06/23 08:24:49;;;;;;;19.08;12.70;;;;;;;25.07;65.65;96127.31;5075028;28;20028;-85
2021/06/23 08:27:14;;;;;;;15.68;12.60;;;;;;;25.24;65.07;96131.50;5074069;28;20401;-85
2021/06/23 08:29:40;;;;;;;18.40;13.38;;;;;;;25.31;65.58;96139.09;5073312;28;20135;-85
2021/06/23 08:32:06;;;;;;;19.50;13.43;;;;;;;25.36;64.64;96129.06;5073686;28;20470;-85
2021/06/23 08:34:31;;;;;;;17.58;13.20;;;;;;;25.32;63.53;96123.91;5071027;28;20325;-85
2021/06/23 08:36:57;;;;;;;22.88;13.13;;;;;;;25.55;63.77;96143.22;5058927;28;20020;-85
2021/06/23 08:39:23;;;;;;;18.13;12.52;;;;;;;25.51;63.34;96129.72;5068844;28;20035;-85
2021/06/23 08:41:48;;;;;;;17.95;12.65;;;;;;;25.69;63.03;96141.69;5069823;28;20021;-85
2021/06/23 08:44:14;;;;;;;19.30;13.75;;;;;;;25.52;63.34;96114.53;5061426;28;20028;-85
2021/06/23 08:46:40;;;;;;;18.65;13.32;;;;;;;25.68;64.07;96126.31;5071952;28;20408;-85
2021/06/23 08:49:07;;;;;;;15.50;13.35;;;;;;;25.74;62.68;96134.44;5071852;28;20128;-85
2021/06/23 08:51:35;;;;;;;18.90;13.55;;;;;;;25.67;63.10;96119.25;5074642;28;20081;-85
2021/06/23 08:54:01;;;;;;;21.42;13.48;;;;;;;25.81;62.90;96125.31;5062516;28;20025;-85
2021/06/23 08:56:27;;;;;;;21.52;13.57;;;;;;;25.88;61.75;96124.53;5074815;28;20070;-85
2021/06/23 08:58:53;;;;;;;17.90;13.13;;;;;;;25.99;61.82;96117.78;5074301;28;20059;-85
2021/06/23 09:01:19;;;;;;;21.23;13.27;;;;;;;26.02;62.19;96111.81;5074287;28;20048;-84
2021/06/23 09:04:05;;;;;;;19.73;13.48;;;;;;;26.42;61.26;96141.59;5063281;28;20432;-85
2021/06/23 09:06:49;;;;;;;20.75;12.77;;;;;;;26.56;60.85;96150.38;5059866;28;20115;-85
2021/06/23 09:09:30;;;;;;;20.77;13.45;;;;;;;26.61;60.39;96152.19;5070612;28;20024;-84
2021/06/23 09:12:03;;;;;;;20.08;12.70;;;;;;;26.59;59.67;96141.63;5058825;28;20039;-84
2021/06/23 09:14:31;;;;;;;16.13;12.50;;;;;;;26.67;59.80;96135.25;5070458;28;20048;-85
2021/06/23 09:17:17;;;;;;;15.45;12.40;;;;;;;26.74;59.88;96134.41;5066868;28;20438;-85
2021/06/23 09:19:43;;;;;;;16.17;12.27;;;;;;;26.99;59.10;96148.28;5071235;28;20028;-84
2021/06/23 09:22:35;;;;;;;19.05;13.35;;;;;;;27.10;58.73;96145.03;5069110;28;20028;-85
2021/06/23 09:25:05;;;;;;;21.33;12.85;;;;;;;27.10;58.27;96142.97;5064090;28;20029;-85
2021/06/23 09:27:31;;;;;;;16.08;12.65;;;;;;;27.20;58.62;96134.69;5072722;28;20031;-85
2021/06/23 09:30:27;;;;;;;18.15;13.07;;;;;;;27.38;57.26;96152.88;5072660;28;20320;-85
2021/06/23 09:33:25;;;;;;;18.65;12.18;;;;;;;27.52;58.32;96144.88;5071355;28;20017;-85
2021/06/23 09:36:08;;;;;;;18.38;12.30;;;;;;;27.71;56.91;96151.94;5070925;28;20066;-85
2021/06/23 09:38:43;;;;;;;21.73;11.90;;;;;;;27.77;55.81;96146.81;5071242;28;20416;-85
2021/06/23 09:41:22;;;;;;;15.55;11.30;;;;;;;27.82;55.13;96143.78;5070469;28;20112;-85
2021/06/23 09:43:51;;;;;;;22.50;12.57;;;;;;;27.97;55.04;96153.97;5070122;28;20028;-85
2021/06/23 09:46:21;;;;;;;19.02;11.77;;;;;;;28.05;55.13;96149.00;5073500;28;20024;-84
2021/06/23 09:48:48;;;;;;;18.15;12.20;;;;;;;28.17;54.48;96152.00;5069415;28;20042;-85
2021/06/23 09:51:20;;;;;;;17.65;11.68;;;;;;;28.03;53.59;96109.81;5072505;28;20025;-85
2021/06/23 09:53:47;;;;;;;19.67;12.70;;;;;;;28.17;54.08;96112.91;5071414;28;20036;-84
2021/06/23 09:56:32;;;;;;;20.10;12.10;;;;;;;28.27;53.03;96152.75;5087526;28;20044;-85
2021/06/23 09:59:00;;;;;;;16.88;11.45;;;;;;;28.35;53.07;96130.34;5069062;28;20024;-85
2021/06/23 10:01:27;;;;;;;14.65;10.85;;;;;;;28.57;51.99;96148.78;5070638;28;20047;-85
2021/06/23 10:03:53;;;;;;;18.63;11.93;;;;;;;28.73;53.02;96151.31;5070885;28;20029;-85
2021/06/23 10:06:42;;;;;;;20.77;11.38;;;;;;;28.82;52.77;96140.16;5073273;28;20025;-85
2021/06/23 10:09:11;;;;;;;18.05;11.35;;;;;;;28.87;53.19;96141.16;5068145;28;20372;-85
2021/06/23 10:11:38;;;;;;;17.00;11.77;;;;;;;28.89;51.28;96122.50;5072139;28;20378;-84
2021/06/23 10:14:06;;;;;;;20.60;12.30;;;;;;;29.14;51.14;96143.88;5073297;28;20031;-85
2021/06/23 10:16:32;;;;;;;18.20;11.57;;;;;;;29.21;51.18;96126.94;5071812;28;20042;-84
2021/06/23 10:18:58;;;;;;;15.70;10.90;;;;;;;29.17;50.74;96109.88;5070756;28;20025;-85
2021/06/23 10:21:23;;;;;;;15.27;10.73;;;;;;;29.39;49.86;96104.41;5072193;28;20039;-85
2021/06/23 10:23:49;;;;;;;23.88;11.95;;;;;;;29.46;48.54;96093.06;5068031;28;20025;-85
2021/06/23 10:26:18;;;;;;;16.80;10.40;;;;;;;29.79;47.32;96133.78;5068991;28;20600;-85
2021/06/23 10:28:49;;;;;;;19.63;10.38;;;;;;;29.69;47.25;96097.44;5067670;28;20506;-84
2021/06/23 10:31:15;;;;;;;16.33;10.05;;;;;;;29.82;48.42;96093.41;5083348;28;20024;-84
2021/06/23 10:33:42;;;;;;;19.00;10.10;;;;;;;29.70;49.37;96059.75;5075357;28;20478;-84
2021/06/23 10:36:08;;;;;;;16.80;10.77;;;;;;;30.11;47.06;96105.22;5076847;28;20031;-85
2021/06/23 10:38:35;;;;;;;17.50;11.27;;;;;;;29.71;46.34;96050.75;5072758;28;20029;-85
2021/06/23 10:41:03;;;;;;;16.02;11.43;;;;;;;29.80;46.71;96130.38;5071101;28;20033;-84
2021/06/23 10:43:28;;;;;;;13.85;10.60;;;;;;;29.71;46.46;96089.19;5072654;28;20090;-85
2021/06/23 10:45:54;;;;;;;15.80;10.43;;;;;;;29.56;46.28;96083.91;5056903;28;20122;-85
2021/06/23 10:48:20;;;;;;;18.73;10.77;;;;;;;30.17;47.66;96108.47;5073194;28;20036;-86
2021/06/23 10:50:45;;;;;;;18.67;10.30;;;;;;;30.62;45.88;96130.31;5068793;28;20036;-85
2021/06/23 10:53:31;;;;;;;16.52;10.88;;;;;;;30.37;43.57;96106.31;5072319;28;20127;-85
2021/06/23 10:55:57;;;;;;;19.35;10.52;;;;;;;30.42;44.77;96105.25;5056266;28;20469;-85
2021/06/23 10:58:29;;;;;;;16.35;10.65;;;;;;;30.81;44.40;96091.00;5081193;28;20029;-85
2021/06/23 11:01:12;;;;;;;18.15;10.15;;;;;;;30.67;43.76;96110.38;5059645;28;20432;-85
2021/06/23 11:03:57;;;;;;;17.30;10.18;;;;;;;30.83;45.02;96116.34;5071267;28;20031;-85
2021/06/23 11:06:52;;;;;;;17.52;10.07;;;;;;;31.06;44.10;96115.00;5070002;28;20021;-88
2021/06/23 11:09:26;;;;;;;15.13;9.90;;;;;;;30.96;42.97;96087.06;5084370;28;20055;-85
2021/06/23 11:11:52;;;;;;;14.68;10.35;;;;;;;31.45;43.69;96093.69;5095646;28;20020;-85
2021/06/23 11:14:21;;;;;;;17.50;10.88;;;;;;;31.53;43.43;96091.41;5057818;28;20079;-85
2021/06/23 11:16:46;;;;;;;16.27;11.27;;;;;;;31.86;44.61;96118.69;5063539;28;20023;-84
2021/06/23 11:19:12;;;;;;;14.73;10.57;;;;;;;31.56;43.16;96100.69;5076022;28;20033;-85
2021/06/23 11:21:39;;;;;;;19.08;10.52;;;;;;;31.50;44.23;96095.44;5071602;28;20032;-84
2021/06/23 11:24:13;;;;;;;15.70;9.95;;;;;;;31.98;42.84;96107.47;5071671;28;20440;-84
2021/06/23 11:26:39;;;;;;;16.15;9.82;;;;;;;31.51;41.55;96110.19;5061511;28;20033;-86
2021/06/23 11:29:10;;;;;;;15.23;10.10;;;;;;;31.37;42.24;96115.63;5063925;28;20052;-85
2021/06/23 11:32:03;;;;;;;15.82;10.07;;;;;;;31.52;41.96;96109.56;5075400;28;20111;-85
2021/06/23 11:37:12;;;;;;;16.90;8.68;;;;;;;31.47;40.11;96110.66;5076127;28;20032;-86
2021/06/23 11:39:38;;;;;;;17.45;9.15;;;;;;;32.10;40.83;96121.50;5074516;28;20774;-86
2021/06/23 11:42:05;;;;;;;16.38;9.57;;;;;;;32.28;41.82;96114.16;5073797;28;20103;-85
2021/06/23 11:44:31;;;;;;;17.38;9.23;;;;;;;32.53;41.11;96127.63;5071464;28;20033;-85